createdAt,value
2023-03-04T00:00:17.066Z,82.89
2023-03-04T00:05:15.871Z,83.25
2023-03-04T00:10:14.787Z,83.27
2023-03-04T00:15:13.625Z,84.20
2023-03-04T00:20:14.946Z,85.56
2023-03-04T00:25:13.724Z,84.59
2023-03-04T00:30:13.162Z,84.74
2023-03-04T00:35:13.384Z,85.48
2023-03-04T00:40:13.303Z,85.06
2023-03-04T00:45:12.464Z,84.56
2023-03-04T00:50:13.752Z,85.70
2023-03-04T00:55:12.550Z,85.38
2023-03-04T01:00:12.681Z,85.05
2023-03-04T01:05:13.317Z,85.28
2023-03-04T01:10:14.191Z,84.74
2023-03-04T01:15:15.092Z,84.85
2023-03-04T01:20:15.926Z,85.13
2023-03-04T01:25:14.697Z,84.91
2023-03-04T01:30:14.135Z,85.21
2023-03-04T01:35:13.040Z,85.24
2023-03-04T01:40:14.902Z,84.83
2023-03-04T01:45:17.276Z,84.11
2023-03-04T01:50:22.096Z,83.56
2023-03-04T01:55:24.778Z,82.61
2023-03-04T02:00:28.015Z,82.41
2023-03-04T02:05:26.941Z,81.95
2023-03-04T02:10:28.058Z,81.80
2023-03-04T02:15:27.250Z,81.50
2023-03-04T02:20:45.131Z,82.14
2023-03-04T02:25:50.728Z,82.41
2023-03-04T02:30:51.355Z,82.26
2023-03-04T02:35:50.190Z,82.59
2023-03-04T02:40:54.087Z,82.98
2023-03-04T02:45:54.009Z,82.50
2023-03-04T02:50:54.900Z,82.93
2023-03-04T02:55:53.923Z,83.19
2023-03-04T03:00:57.256Z,83.97
2023-03-04T03:05:57.657Z,85.50
2023-03-04T03:10:58.178Z,86.52
2023-03-04T03:15:59.514Z,86.63
2023-03-04T03:20:58.441Z,86.65
2023-03-04T03:25:57.349Z,86.59
2023-03-04T03:31:00.670Z,86.13
2023-03-04T03:36:00.386Z,86.70
2023-03-04T03:40:59.275Z,87.68
2023-03-04T03:45:58.574Z,89.85
2023-03-04T03:50:58.755Z,89.08
2023-03-04T03:55:59.078Z,86.93
2023-03-04T04:00:58.565Z,86.10
2023-03-04T04:05:58.960Z,85.70
2023-03-04T04:10:57.879Z,84.49
2023-03-04T04:15:56.708Z,84.66
2023-03-04T04:20:55.882Z,83.90
2023-03-04T04:25:57.925Z,83.58
2023-03-04T04:30:56.801Z,82.84
2023-03-04T04:35:55.554Z,82.38
2023-03-04T04:40:54.382Z,81.91
2023-03-04T04:45:54.774Z,81.51
2023-03-04T04:50:56.731Z,81.09
2023-03-04T04:55:55.487Z,80.76
2023-03-04T05:00:58.045Z,80.47
2023-03-04T05:05:56.848Z,80.30
2023-03-04T05:10:55.683Z,80.49
2023-03-04T05:15:57.147Z,80.39
2023-03-04T05:20:58.036Z,81.30
2023-03-04T05:25:57.123Z,82.72
2023-03-04T05:30:57.278Z,82.17
2023-03-04T05:35:56.180Z,81.51
2023-03-04T05:40:59.854Z,81.03
2023-03-04T05:46:00.113Z,80.87
2023-03-04T05:51:00.957Z,80.29
2023-03-04T05:56:00.140Z,79.87
2023-03-04T06:01:03.096Z,80.50
2023-03-04T06:06:02.272Z,80.60
2023-03-04T06:11:01.013Z,80.92
2023-03-04T06:16:01.139Z,80.34
2023-03-04T06:21:03.246Z,80.90
2023-03-04T06:26:02.860Z,83.84
2023-03-04T06:31:01.905Z,83.97
2023-03-04T06:36:02.223Z,83.69
2023-03-04T06:41:09.064Z,85.88
2023-03-04T06:46:10.866Z,85.86
2023-03-04T06:51:13.467Z,86.95
2023-03-04T06:56:16.226Z,85.37
2023-03-04T07:01:17.187Z,85.26
2023-03-04T07:06:20.191Z,84.41
2023-03-04T07:11:20.112Z,83.21
2023-03-04T07:16:21.615Z,82.56
2023-03-04T07:21:22.688Z,82.95
2023-03-04T07:26:21.860Z,82.15
2023-03-04T07:31:27.686Z,80.94
2023-03-04T07:36:28.473Z,78.94
2023-03-04T07:41:29.280Z,79.28
2023-03-04T07:46:28.067Z,78.53
2023-03-04T07:51:29.409Z,78.95
2023-03-04T07:56:30.183Z,79.03
2023-03-04T08:01:31.378Z,81.71
2023-03-04T08:06:31.911Z,81.80
2023-03-04T08:11:32.009Z,81.17
2023-03-04T08:16:30.945Z,79.28
2023-03-04T08:21:31.445Z,79.38
2023-03-04T08:26:34.124Z,78.98
2023-03-04T08:31:34.000Z,75.71
2023-03-04T08:36:37.307Z,74.22
2023-03-04T08:41:36.544Z,72.14
2023-03-04T08:46:39.902Z,72.65
2023-03-04T08:51:40.439Z,72.36
2023-03-04T08:56:41.160Z,72.69
2023-03-04T09:01:46.878Z,74.22
2023-03-04T09:06:47.224Z,74.33
2023-03-04T09:11:46.000Z,73.31
2023-03-04T09:16:44.762Z,75.38
2023-03-04T09:21:43.515Z,73.34
2023-03-04T09:26:43.858Z,72.63
2023-03-04T09:31:42.669Z,71.48
2023-03-04T09:36:41.446Z,68.91
2023-03-04T09:41:44.493Z,70.70
2023-03-04T09:46:46.258Z,70.08
2023-03-04T09:51:56.800Z,67.18
2023-03-04T09:57:01.386Z,67.33
2023-03-04T10:02:02.310Z,66.57
2023-03-04T10:07:02.794Z,63.21
2023-03-04T10:12:07.396Z,62.68
2023-03-04T10:17:13.768Z,63.76
2023-03-04T10:22:21.060Z,62.11
2023-03-04T10:27:21.346Z,60.98
2023-03-04T10:32:21.781Z,61.70
2023-03-04T10:37:20.907Z,59.08
2023-03-04T10:42:37.610Z,62.12
2023-03-04T10:47:36.680Z,61.39
2023-03-04T10:52:39.799Z,63.49
2023-03-04T10:57:41.311Z,61.93
2023-03-04T11:02:40.257Z,61.43
2023-03-04T11:07:54.670Z,63.68
2023-03-04T11:13:02.156Z,65.20
2023-03-04T11:18:04.974Z,65.40
2023-03-04T11:23:08.133Z,64.19
2023-03-04T11:28:17.188Z,62.07
2023-03-04T11:33:27.782Z,61.13
2023-03-04T11:38:33.451Z,60.53
2023-03-04T11:43:37.533Z,58.14
2023-03-04T11:48:46.784Z,58.75
2023-03-04T11:53:55.689Z,59.11
2023-03-04T11:59:32.842Z,58.64
2023-03-04T12:04:47.916Z,58.86
2023-03-04T12:09:58.983Z,59.38
2023-03-04T12:15:09.368Z,57.34
2023-03-04T12:20:33.544Z,59.10
2023-03-04T12:25:42.754Z,55.71
2023-03-04T12:30:54.183Z,54.92
2023-03-04T12:36:03.121Z,54.41
2023-03-04T12:41:12.613Z,53.55
2023-03-04T12:46:24.391Z,54.51
2023-03-04T12:51:34.963Z,53.12
2023-03-04T12:56:43.695Z,53.21
2023-03-04T13:01:47.515Z,51.38
2023-03-04T13:06:54.713Z,50.46
2023-03-04T13:11:55.935Z,51.75
2023-03-04T13:16:57.153Z,49.60
2023-03-04T13:21:58.023Z,47.69
2023-03-04T13:26:57.001Z,49.08
2023-03-04T13:32:00.971Z,49.75
2023-03-04T13:37:01.225Z,48.36
2023-03-04T13:42:01.138Z,47.52
2023-03-04T13:47:10.188Z,47.51
2023-03-04T13:52:45.494Z,46.99
2023-03-04T13:57:51.221Z,48.18
2023-03-04T14:02:50.147Z,48.29
2023-03-04T14:07:49.130Z,48.29
2023-03-04T14:12:52.713Z,48.76
2023-03-04T14:17:54.794Z,48.77
2023-03-04T14:22:53.914Z,47.15
2023-03-04T14:28:04.294Z,46.63
2023-03-04T14:33:04.118Z,46.31
2023-03-04T14:38:06.342Z,46.72
2023-03-04T14:43:12.552Z,47.70
2023-03-04T14:48:22.542Z,45.82
2023-03-04T14:53:23.300Z,45.83
2023-03-04T14:58:27.050Z,46.38
2023-03-04T15:03:29.357Z,45.86
2023-03-04T15:08:31.309Z,47.51
2023-03-04T15:13:41.922Z,47.30
2023-03-04T15:18:41.336Z,46.95
2023-03-04T15:23:40.278Z,46.59
2023-03-04T15:28:42.682Z,47.06
2023-03-04T15:33:41.498Z,46.48
2023-03-04T15:38:41.903Z,46.77
2023-03-04T15:43:42.069Z,47.15
2023-03-04T15:48:40.841Z,47.07
2023-03-04T15:53:41.692Z,48.03
2023-03-04T15:58:43.298Z,48.63
2023-03-04T16:03:42.585Z,49.86
2023-03-04T16:08:43.116Z,50.85
2023-03-04T16:13:43.289Z,51.28
2023-03-04T16:18:42.822Z,52.70
2023-03-04T16:23:43.980Z,53.17
2023-03-04T16:28:44.204Z,54.03
2023-03-04T16:33:43.328Z,54.90
2023-03-04T16:38:42.291Z,56.42
2023-03-04T16:43:41.576Z,56.92
2023-03-04T16:48:42.519Z,57.00
2023-03-04T16:53:45.627Z,57.30
2023-03-04T16:58:45.349Z,57.98
2023-03-04T17:03:45.641Z,58.35
2023-03-04T17:08:44.890Z,58.35
2023-03-04T17:13:43.971Z,58.71
2023-03-04T17:18:44.340Z,59.70
2023-03-04T17:23:44.494Z,60.06
2023-03-04T17:28:43.687Z,61.03
2023-03-04T17:33:43.848Z,62.37
2023-03-04T17:38:44.247Z,62.05
2023-03-04T17:43:44.475Z,62.29
2023-03-04T17:48:45.929Z,62.76
2023-03-04T17:53:46.162Z,63.15
2023-03-04T17:58:45.085Z,62.74
2023-03-04T18:03:43.900Z,62.89
2023-03-04T18:08:42.737Z,62.99
2023-03-04T18:13:44.271Z,63.38
2023-03-04T18:18:43.923Z,63.55
2023-03-04T18:23:42.651Z,63.79
2023-03-04T18:28:43.124Z,63.99
2023-03-04T18:33:41.860Z,64.45
2023-03-04T18:38:40.896Z,65.16
2023-03-04T18:43:40.010Z,65.30
2023-03-04T18:48:44.200Z,65.08
2023-03-04T18:53:43.168Z,65.28
2023-03-04T18:58:46.146Z,65.04
2023-03-04T19:03:47.253Z,65.22
2023-03-04T19:08:46.061Z,65.07
2023-03-04T19:13:44.870Z,65.70
2023-03-04T19:18:43.625Z,65.26
2023-03-04T19:23:43.765Z,64.99
2023-03-04T19:28:43.042Z,64.70
2023-03-04T19:33:42.134Z,64.45
2023-03-04T19:38:41.095Z,64.90
2023-03-04T19:43:42.086Z,64.73
2023-03-04T19:48:41.556Z,64.94
2023-03-04T19:53:40.329Z,64.99
2023-03-04T19:58:40.662Z,65.78
2023-03-04T20:03:39.617Z,65.90
2023-03-04T20:08:38.635Z,66.10
2023-03-04T20:13:37.438Z,65.71
2023-03-04T20:18:37.794Z,65.33
2023-03-04T20:23:37.343Z,65.75
2023-03-04T20:28:36.306Z,65.99
2023-03-04T20:33:35.121Z,66.78
2023-03-04T20:38:35.395Z,66.76
2023-03-04T20:43:34.381Z,66.43
2023-03-04T20:48:33.138Z,66.92
2023-03-04T20:53:31.949Z,66.62
2023-03-04T20:58:32.130Z,67.61
2023-03-04T21:03:31.046Z,67.27
2023-03-04T21:08:29.875Z,67.38
2023-03-04T21:13:30.645Z,67.42
2023-03-04T21:18:30.739Z,68.35
2023-03-04T21:23:29.624Z,67.25
2023-03-04T21:28:28.444Z,67.74
2023-03-04T21:33:34.695Z,67.83
2023-03-04T21:38:34.076Z,68.59
2023-03-04T21:43:32.957Z,68.20
2023-03-04T21:48:33.369Z,68.58
2023-03-04T21:53:32.741Z,68.14
2023-03-04T21:58:32.193Z,67.47
2023-03-04T22:03:32.386Z,68.11
2023-03-04T22:08:31.152Z,67.93
2023-03-04T22:13:30.023Z,67.38
2023-03-04T22:18:29.227Z,67.98
2023-03-04T22:23:29.971Z,68.45
2023-03-04T22:28:29.877Z,68.90
2023-03-04T22:33:29.734Z,68.64
2023-03-04T22:38:29.925Z,68.53
2023-03-04T22:43:28.777Z,67.94
2023-03-04T22:48:27.958Z,67.42
2023-03-04T22:53:26.699Z,67.12
2023-03-04T22:58:26.991Z,67.75
2023-03-04T23:03:25.739Z,67.14
2023-03-04T23:08:24.468Z,67.68
2023-03-04T23:13:23.279Z,67.46
2023-03-04T23:18:23.378Z,67.93
2023-03-04T23:23:22.178Z,67.31
2023-03-04T23:28:20.958Z,67.59
2023-03-04T23:33:19.806Z,68.28
2023-03-04T23:38:19.952Z,67.95
2023-03-04T23:43:18.733Z,68.30
2023-03-04T23:48:17.555Z,68.37
2023-03-04T23:53:16.366Z,69.05
2023-03-04T23:58:16.505Z,69.23
